Time;durP1;ratioP1;P1;durP2;ratioP2;P2;SDS_P1;SDS_P2;PMS_P1;PMS_P2;Temp;Humidity;BMP_temperature;BMP_pressure;BME280_temperature;BME280_humidity;BME280_pressure;Samples;Min_cycle;Max_cycle;Signal;HPM_P1;HPM_P2
2023/08/30 00:00:12;;;;;;;;;;;;;;;25.79;33.60;99971.59;5073168;28;19912;-67
2023/08/30 00:02:37;;;;;;;;;;;;;;;25.81;33.67;99974.88;5064566;28;19927;-67
2023/08/30 00:05:03;;;;;;;;;;;;;;;25.82;33.70;99983.94;5072832;28;19925;-67
2023/08/30 00:07:29;;;;;;;;;;;;;;;25.75;33.49;99972.53;5072926;28;19920;-67
2023/08/30 00:09:54;;;;;;;;;;;;;;;25.68;33.77;99975.69;5073275;28;20069;-67
2023/08/30 00:12:21;;;;;;;;;;;;;;;25.57;33.64;99966.03;5073284;28;19974;-67
2023/08/30 00:14:46;;;;;;;;;;;;;;;25.52;33.64;99966.97;5072801;28;19916;-67
2023/08/30 00:17:12;;;;;;;;;;;;;;;25.45;33.68;99966.56;5073046;28;19917;-67
2023/08/30 00:19:37;;;;;;;;;;;;;;;25.36;34.06;99969.19;5072965;28;19927;-67
2023/08/30 00:22:03;;;;;;;;;;;;;;;25.33;33.90;99968.97;5072874;28;19913;-67
2023/08/30 00:24:28;;;;;;;;;;;;;;;25.34;33.93;99976.94;5072264;28;19920;-67
2023/08/30 00:26:53;;;;;;;;;;;;;;;25.29;34.35;99969.59;5072932;28;20307;-67
2023/08/30 00:29:19;;;;;;;;;;;;;;;25.25;33.98;99970.50;5072734;28;19922;-67
2023/08/30 00:31:44;;;;;;;;;;;;;;;25.21;33.97;99973.03;5072898;28;20018;-66
2023/08/30 00:34:09;;;;;;;;;;;;;;;25.15;33.74;99976.16;5054592;28;19916;-67
2023/08/30 00:36:35;;;;;;;;;;;;;;;25.08;33.82;99966.38;5072580;28;20006;-67
2023/08/30 00:39:00;;;;;;;;;;;;;;;24.99;34.11;99965.44;5072704;28;19912;-67
2023/08/30 00:41:25;;;;;;;;;;;;;;;24.93;33.82;99972.16;5072575;28;20352;-67
2023/08/30 00:43:51;;;;;;;;;;;;;;;24.87;34.12;99973.34;5072389;28;19916;-67
2023/08/30 00:46:16;;;;;;;;;;;;;;;24.82;34.13;99959.72;5072780;28;19962;-67
2023/08/30 00:48:41;;;;;;;;;;;;;;;24.74;34.25;99974.97;5072643;28;20380;-67
2023/08/30 00:51:07;;;;;;;;;;;;;;;24.67;34.11;99967.09;5054574;28;19912;-67
2023/08/30 00:53:32;;;;;;;;;;;;;;;24.64;34.28;99969.63;5072574;28;20436;-67
2023/08/30 00:55:58;;;;;;;;;;;;;;;24.60;34.58;99968.59;5072118;28;19951;-67
2023/08/30 00:58:26;;;;;;;;;;;;;;;24.56;34.20;99970.31;5072764;28;19912;-67
2023/08/30 01:00:52;;;;;;;;;;;;;;;24.46;34.79;99979.50;5052701;28;19916;-67
2023/08/30 01:03:17;;;;;;;;;;;;;;;24.40;34.56;99977.94;5069752;28;20073;-67
2023/08/30 01:05:42;;;;;;;;;;;;;;;24.44;34.86;99981.72;5054845;28;19923;-67
2023/08/30 01:08:08;;;;;;;;;;;;;;;24.44;34.88;99987.22;5073438;28;20374;-67
2023/08/30 01:10:52;;;;;;;;;;;;;;;24.38;35.01;99977.44;5055748;28;19954;-67
2023/08/30 01:13:19;;;;;;;;;;;;;;;24.33;34.85;99976.41;5072707;28;19953;-67
2023/08/30 01:15:46;;;;;;;;;;;;;;;24.24;35.05;99988.34;5072621;28;19951;-66
2023/08/30 01:18:12;;;;;;;;;;;;;;;24.16;35.10;99987.06;5073680;28;19912;-66
2023/08/30 01:20:39;;;;;;;;;;;;;;;24.12;35.21;99984.09;5076066;28;20364;-66
2023/08/30 01:23:11;;;;;;;;;;;;;;;24.12;35.16;99984.09;5075870;28;19921;-66
2023/08/30 01:25:45;;;;;;;;;;;;;;;24.13;35.45;99982.19;5076475;28;19913;-66
2023/08/30 01:28:11;;;;;;;;;;;;;;;24.20;36.47;99974.41;5076394;28;19924;-66
2023/08/30 01:30:40;;;;;;;;;;;;;;;24.15;35.27;99979.97;5076245;28;20463;-66
2023/08/30 01:33:05;;;;;;;;;;;;;;;24.12;34.88;99977.81;5076055;28;20358;-66
2023/08/30 01:35:32;;;;;;;;;;;;;;;24.06;35.37;99979.00;5076279;28;19958;-66
2023/08/30 01:38:02;;;;;;;;;;;;;;;24.01;35.05;99977.13;5076418;28;19920;-66
2023/08/30 01:40:28;;;;;;;;;;;;;;;23.97;35.37;99973.34;5075979;28;20421;-66
2023/08/30 01:42:55;;;;;;;;;;;;;;;23.98;35.20;99985.13;5075727;28;20373;-66
2023/08/30 01:45:22;;;;;;;;;;;;;;;23.92;35.01;99977.00;5075676;28;19912;-67
2023/08/30 01:47:47;;;;;;;;;;;;;;;23.92;35.18;99987.13;5075933;28;19955;-67
2023/08/30 01:50:13;;;;;;;;;;;;;;;23.91;35.31;99988.25;5074401;28;19951;-67
2023/08/30 01:52:39;;;;;;;;;;;;;;;23.88;35.34;99986.91;5075909;28;19967;-67
2023/08/30 01:55:05;;;;;;;;;;;;;;;23.91;35.48;99988.25;5075060;28;19978;-67
2023/08/30 01:57:31;;;;;;;;;;;;;;;23.93;35.51;99986.84;5075471;28;19916;-67
2023/08/30 01:59:56;;;;;;;;;;;;;;;23.87;35.49;100001.72;5075515;28;19957;-67
2023/08/30 02:02:21;;;;;;;;;;;;;;;23.88;35.58;100002.53;5075430;28;19912;-67
2023/08/30 02:04:46;;;;;;;;;;;;;;;23.86;35.83;100004.75;5075155;28;19921;-67
2023/08/30 02:07:22;;;;;;;;;;;;;;;23.82;35.94;100006.47;5075853;28;19920;-67
2023/08/30 02:10:06;;;;;;;;;;;;;;;23.78;35.97;100008.94;5075676;28;20282;-67
2023/08/30 02:12:35;;;;;;;;;;;;;;;23.76;35.67;100002.94;5055426;28;20344;-67
2023/08/30 02:15:01;;;;;;;;;;;;;;;23.72;35.87;100002.72;5055222;28;19913;-67
2023/08/30 02:17:27;;;;;;;;;;;;;;;23.74;35.97;99999.69;5063778;28;19923;-66
2023/08/30 02:19:53;;;;;;;;;;;;;;;23.70;36.10;100004.94;5074798;28;19916;-66
2023/08/30 02:22:19;;;;;;;;;;;;;;;23.70;36.11;100004.94;5074799;28;20017;-66
2023/08/30 02:24:44;;;;;;;;;;;;;;;23.62;35.80;99982.81;5075427;28;19993;-67
2023/08/30 02:27:12;;;;;;;;;;;;;;;23.64;36.06;99992.38;5074980;28;19924;-67
2023/08/30 02:29:37;;;;;;;;;;;;;;;23.60;35.91;100001.50;5074934;28;19920;-67
2023/08/30 02:32:03;;;;;;;;;;;;;;;23.52;35.87;99995.53;5075360;28;19916;-67
2023/08/30 02:34:29;;;;;;;;;;;;;;;23.45;36.05;99991.50;5074518;28;19917;-67
2023/08/30 02:36:54;;;;;;;;;;;;;;;23.35;36.08;99987.78;5074970;28;20023;-67
2023/08/30 02:39:19;;;;;;;;;;;;;;;23.28;35.91;99992.78;5074862;28;20003;-67
2023/08/30 02:41:45;;;;;;;;;;;;;;;23.22;36.17;99996.69;5074593;28;20365;-67
2023/08/30 02:44:11;;;;;;;;;;;;;;;23.18;35.96;99998.38;5056973;28;19951;-67
2023/08/30 02:46:37;;;;;;;;;;;;;;;23.17;36.13;100003.03;5074257;28;19965;-67
2023/08/30 02:49:03;;;;;;;;;;;;;;;23.14;36.04;99995.41;5074841;28;19920;-67
2023/08/30 02:51:28;;;;;;;;;;;;;;;23.12;36.46;99988.56;5074738;28;19973;-67
2023/08/30 02:53:53;;;;;;;;;;;;;;;23.16;36.49;99998.66;5074099;28;20375;-67
2023/08/30 02:56:18;;;;;;;;;;;;;;;23.10;36.67;99993.50;5074468;28;19948;-67
2023/08/30 02:58:44;;;;;;;;;;;;;;;23.05;36.24;99996.28;5074454;28;19970;-67
2023/08/30 03:01:09;;;;;;;;;;;;;;;22.97;36.48;99995.81;5073859;28;19920;-67
2023/08/30 03:03:34;;;;;;;;;;;;;;;22.95;36.35;100000.72;5056144;28;19920;-67
2023/08/30 03:06:01;;;;;;;;;;;;;;;23.00;36.60;99991.66;5074154;28;20007;-67
2023/08/30 03:08:26;;;;;;;;;;;;;;;23.04;36.30;99986.47;5073937;28;20288;-68
2023/08/30 03:10:52;;;;;;;;;;;;;;;23.06;36.23;99989.72;5072997;28;19913;-67
2023/08/30 03:13:17;;;;;;;;;;;;;;;23.02;36.06;99994.13;5074225;28;19913;-67
2023/08/30 03:15:42;;;;;;;;;;;;;;;22.99;36.13;99992.75;5073970;28;19920;-67
2023/08/30 03:18:07;;;;;;;;;;;;;;;22.95;36.49;99986.22;5074152;28;19913;-68
2023/08/30 03:20:33;;;;;;;;;;;;;;;22.89;36.28;99990.13;5073959;28;19919;-67
2023/08/30 03:22:58;;;;;;;;;;;;;;;22.81;36.62;99988.84;5073941;28;20030;-67
2023/08/30 03:25:23;;;;;;;;;;;;;;;22.72;36.49;99985.88;5073981;28;20591;-67
2023/08/30 03:27:49;;;;;;;;;;;;;;;22.69;36.09;99999.31;5074153;28;20257;-67
2023/08/30 03:30:14;;;;;;;;;;;;;;;22.65;36.35;99990.88;5074031;28;19916;-67
2023/08/30 03:32:40;;;;;;;;;;;;;;;22.64;36.45;99989.25;5073832;28;20353;-67
2023/08/30 03:35:05;;;;;;;;;;;;;;;22.64;36.74;99991.16;5073624;28;20380;-67
2023/08/30 03:37:31;;;;;;;;;;;;;;;22.65;36.51;99984.59;5073889;28;19919;-67
2023/08/30 03:39:56;;;;;;;;;;;;;;;22.70;36.50;99990.84;5073616;28;20297;-67
2023/08/30 03:42:21;;;;;;;;;;;;;;;22.68;36.67;99986.72;5073350;28;19958;-67
2023/08/30 03:44:47;;;;;;;;;;;;;;;22.70;36.94;99985.34;5056212;28;19921;-67
2023/08/30 03:47:12;;;;;;;;;;;;;;;22.74;36.80;99983.66;5073401;28;19978;-67
2023/08/30 03:49:37;;;;;;;;;;;;;;;22.75;36.52;99977.09;5073594;28;19920;-67
2023/08/30 03:52:03;;;;;;;;;;;;;;;22.73;36.75;99979.31;5073521;28;19913;-67
2023/08/30 03:54:28;;;;;;;;;;;;;;;22.81;36.86;99975.13;5072710;28;20264;-67
2023/08/30 03:56:53;;;;;;;;;;;;;;;22.80;36.96;99973.50;5073291;28;19912;-67
2023/08/30 03:59:18;;;;;;;;;;;;;;;22.79;36.28;99971.88;5073538;28;19959;-67
2023/08/30 04:01:44;;;;;;;;;;;;;;;22.75;36.34;99974.38;5051569;28;20058;-67
2023/08/30 04:04:10;;;;;;;;;;;;;;;22.73;36.46;99978.47;5078645;28;20427;-67
2023/08/30 04:06:35;;;;;;;;;;;;;;;22.72;36.41;99966.72;5092520;28;19912;-67
2023/08/30 04:09:00;;;;;;;;;;;;;;;22.77;36.47;99965.84;5092317;28;20441;-67
2023/08/30 04:11:26;;;;;;;;;;;;;;;22.74;36.60;99972.72;5075528;28;19913;-67
2023/08/30 04:13:52;;;;;;;;;;;;;;;22.72;36.49;99974.13;5072257;28;19920;-67
2023/08/30 04:16:17;;;;;;;;;;;;;;;22.73;36.73;99973.00;5059465;28;19923;-67
2023/08/30 04:18:42;;;;;;;;;;;;;;;22.75;36.86;99973.53;5071959;28;19916;-67
2023/08/30 04:21:08;;;;;;;;;;;;;;;22.78;36.86;99973.78;5071978;28;19936;-67
2023/08/30 04:23:34;;;;;;;;;;;;;;;22.84;36.55;99971.00;5071947;28;19925;-67
2023/08/30 04:26:00;;;;;;;;;;;;;;;22.88;37.10;99970.16;5072071;28;19919;-67
2023/08/30 04:28:26;;;;;;;;;;;;;;;22.95;36.78;99976.09;5071899;28;19912;-67
2023/08/30 04:30:53;;;;;;;;;;;;;;;23.06;37.21;99971.34;5071697;28;20424;-67
2023/08/30 04:33:18;;;;;;;;;;;;;;;23.16;36.93;99967.69;5071987;28;19935;-67
2023/08/30 04:35:43;;;;;;;;;;;;;;;23.24;36.89;99972.56;5071722;28;19917;-67
2023/08/30 04:38:09;;;;;;;;;;;;;;;23.32;36.71;99971.09;5071892;28;19912;-68
2023/08/30 04:40:34;;;;;;;;;;;;;;;23.37;36.91;99976.53;5071890;28;19916;-68
2023/08/30 04:42:59;;;;;;;;;;;;;;;23.37;37.05;99976.53;5071703;28;19923;-67
2023/08/30 04:45:24;;;;;;;;;;;;;;;23.42;37.01;99973.75;5071609;28;19919;-67
2023/08/30 04:47:50;;;;;;;;;;;;;;;23.49;36.83;99976.91;5071607;28;20297;-67
2023/08/30 04:50:16;;;;;;;;;;;;;;;23.49;36.94;99973.38;5071722;28;20019;-67
2023/08/30 04:52:42;;;;;;;;;;;;;;;23.52;36.65;99973.59;5070593;28;19920;-66
2023/08/30 04:55:08;;;;;;;;;;;;;;;23.54;36.78;99976.06;5070883;28;20344;-66
2023/08/30 04:57:33;;;;;;;;;;;;;;;23.61;36.47;99990.22;5071316;28;20301;-66
2023/08/30 04:59:59;;;;;;;;;;;;;;;23.62;36.56;99985.56;5082556;28;20006;-66
2023/08/30 05:02:24;;;;;;;;;;;;;;;23.61;36.46;99987.50;5076487;28;19920;-66
2023/08/30 05:05:24;;;;;;;;;;;;;;;23.66;36.53;99992.91;5090152;27;19970;-67
2023/08/30 05:07:49;;;;;;;;;;;;;;;23.68;36.83;99993.44;5090311;28;19916;-67
2023/08/30 05:10:15;;;;;;;;;;;;;;;23.74;36.72;99997.75;5089994;28;19913;-67
2023/08/30 05:12:42;;;;;;;;;;;;;;;23.76;36.59;100001.00;5090254;28;19927;-67
2023/08/30 05:15:07;;;;;;;;;;;;;;;23.77;36.65;99997.16;5089982;28;19920;-67
2023/08/30 05:17:33;;;;;;;;;;;;;;;23.82;36.62;99999.03;5090039;28;19916;-67
2023/08/30 05:19:58;;;;;;;;;;;;;;;23.85;36.66;100003.16;5089630;28;19913;-67
2023/08/30 05:22:23;;;;;;;;;;;;;;;23.92;36.70;100003.56;5089830;28;19913;-67
2023/08/30 05:24:49;;;;;;;;;;;;;;;23.97;36.53;100006.25;5089959;28;19917;-67
2023/08/30 05:27:14;;;;;;;;;;;;;;;24.02;36.73;100002.66;5089772;28;20199;-67
2023/08/30 05:29:40;;;;;;;;;;;;;;;24.06;36.80;99999.00;5089684;28;19912;-67
2023/08/30 05:32:05;;;;;;;;;;;;;;;24.13;36.58;99996.72;5089803;28;19955;-67
2023/08/30 05:34:31;;;;;;;;;;;;;;;24.22;36.24;99998.78;5089817;28;19916;-67
2023/08/30 05:36:56;;;;;;;;;;;;;;;24.24;36.25;99996.59;5089441;28;20028;-67
2023/08/30 05:39:21;;;;;;;;;;;;;;;24.29;36.49;100000.06;5089503;28;19918;-67
2023/08/30 05:41:46;;;;;;;;;;;;;;;24.37;36.14;99986.75;5089398;28;20376;-67
2023/08/30 05:44:12;;;;;;;;;;;;;;;24.44;36.34;99987.22;5089364;28;19956;-67
2023/08/30 05:46:37;;;;;;;;;;;;;;;24.50;36.08;99989.59;5089573;28;19919;-67
2023/08/30 05:49:03;;;;;;;;;;;;;;;24.57;36.05;99994.72;5089451;28;19955;-67
2023/08/30 05:51:28;;;;;;;;;;;;;;;24.64;36.14;99997.91;5087963;28;19923;-67
2023/08/30 05:53:53;;;;;;;;;;;;;;;24.71;36.18;99998.34;5088817;28;19919;-67
2023/08/30 05:56:19;;;;;;;;;;;;;;;24.78;36.16;99989.72;5091254;28;19986;-67
2023/08/30 05:58:45;;;;;;;;;;;;;;;24.87;35.91;99990.66;5089493;28;20003;-67
2023/08/30 06:01:10;;;;;;;;;;;;;;;24.94;35.92;99990.25;5088945;28;19947;-67
2023/08/30 06:03:35;;;;;;;;;;;;;;;24.97;35.76;99994.34;5094462;28;19923;-69
2023/08/30 06:06:01;;;;;;;;;;;;;;;25.03;36.06;99991.19;5109681;28;19923;-67
2023/08/30 06:08:26;;;;;;;;;;;;;;;25.06;35.54;99982.38;5101003;28;19916;-67
2023/08/30 06:10:52;;;;;;;;;;;;;;;25.22;35.83;99990.31;5088990;28;20420;-67
2023/08/30 06:13:17;;;;;;;;;;;;;;;25.27;35.90;99988.31;5088675;28;19935;-67
2023/08/30 06:15:44;;;;;;;;;;;;;;;25.33;35.67;99997.28;5081189;28;20062;-67
2023/08/30 06:18:09;;;;;;;;;;;;;;;25.37;35.78;99987.31;5075263;28;19916;-67
2023/08/30 06:20:39;;;;;;;;;;;;;;;25.35;35.51;99994.22;5075559;28;19923;-67
2023/08/30 06:23:05;;;;;;;;;;;;;;;25.36;35.73;99998.63;5075188;28;19920;-67
2023/08/30 06:25:30;;;;;;;;;;;;;;;25.40;35.38;99992.19;5075379;28;19912;-67
2023/08/30 06:27:57;;;;;;;;;;;;;;;25.35;35.26;99980.50;5075444;28;19962;-67
2023/08/30 06:30:22;;;;;;;;;;;;;;;25.45;35.74;99992.09;5075193;28;19913;-67
2023/08/30 06:32:48;;;;;;;;;;;;;;;25.56;35.65;99991.91;5083937;28;19919;-67
2023/08/30 06:35:14;;;;;;;;;;;;;;;25.69;35.64;99994.66;5095582;28;20470;-67
2023/08/30 06:37:40;;;;;;;;;;;;;;;25.78;35.38;99992.00;5095179;28;20007;-67
2023/08/30 06:40:06;;;;;;;;;;;;;;;25.83;35.00;100000.13;5095216;28;20007;-67
2023/08/30 06:42:31;;;;;;;;;;;;;;;25.85;35.19;99997.91;5095400;28;19919;-67
2023/08/30 06:44:57;;;;;;;;;;;;;;;25.89;34.95;99998.09;5095160;28;19916;-68
2023/08/30 06:47:22;;;;;;;;;;;;;;;25.86;35.10;99991.28;5095000;28;19919;-67
2023/08/30 06:49:47;;;;;;;;;;;;;;;25.92;34.76;99996.66;5095018;28;19913;-68
2023/08/30 06:52:12;;;;;;;;;;;;;;;25.91;35.01;99995.03;5094519;28;20049;-66
2023/08/30 06:54:37;;;;;;;;;;;;;;;25.89;34.76;99992.56;5094187;28;19912;-66
2023/08/30 06:57:03;;;;;;;;;;;;;;;25.92;35.13;99996.66;5094513;28;19916;-66
2023/08/30 06:59:28;;;;;;;;;;;;;;;25.93;34.72;99996.41;5094614;28;19919;-66
2023/08/30 07:01:54;;;;;;;;;;;;;;;25.85;34.81;100003.41;5088234;28;20053;-67
2023/08/30 07:04:19;;;;;;;;;;;;;;;25.77;34.81;100006.06;5074326;28;19927;-67
2023/08/30 07:06:45;;;;;;;;;;;;;;;25.84;34.98;100010.03;5074754;28;19920;-67
2023/08/30 07:09:11;;;;;;;;;;;;;;;25.96;34.68;100012.28;5074310;28;20365;-67
2023/08/30 07:11:37;;;;;;;;;;;;;;;26.04;34.59;100008.81;5074586;28;19916;-67
2023/08/30 07:14:02;;;;;;;;;;;;;;;26.17;34.55;100009.06;5074568;28;19978;-66
2023/08/30 07:16:29;;;;;;;;;;;;;;;26.38;34.71;99998.44;5074179;28;19916;-66
2023/08/30 07:18:54;;;;;;;;;;;;;;;26.55;34.39;99997.75;5074420;28;19919;-67
2023/08/30 07:21:19;;;;;;;;;;;;;;;26.65;34.48;100006.63;5073946;28;20015;-67
2023/08/30 07:23:44;;;;;;;;;;;;;;;26.77;34.55;99989.50;5074063;28;20016;-68
2023/08/30 07:26:09;;;;;;;;;;;;;;;26.78;34.27;99995.81;5073925;28;19919;-67
2023/08/30 07:28:35;;;;;;;;;;;;;;;26.78;34.11;99993.91;5076790;28;20540;-67
2023/08/30 07:31:04;;;;;;;;;;;;;;;26.76;33.69;99998.88;5094335;28;20322;-67
2023/08/30 07:33:29;;;;;;;;;;;;;;;26.79;33.78;99997.47;5094109;28;20006;-67
2023/08/30 07:35:54;;;;;;;;;;;;;;;26.80;33.77;99996.31;5091617;28;20003;-67
2023/08/30 07:38:19;;;;;;;;;;;;;;;26.79;33.87;99991.97;5074076;28;19913;-67
2023/08/30 07:40:45;;;;;;;;;;;;;;;26.80;33.82;99997.16;5073908;28;19919;-67
2023/08/30 07:43:10;;;;;;;;;;;;;;;26.78;33.52;99998.59;5073666;28;20028;-67
2023/08/30 07:45:35;;;;;;;;;;;;;;;26.75;33.99;99990.97;5073871;28;19925;-67
2023/08/30 07:48:00;;;;;;;;;;;;;;;26.81;33.62;99997.97;5078313;28;19916;-67
2023/08/30 07:50:26;;;;;;;;;;;;;;;26.76;34.01;99998.88;5093617;28;19923;-67
2023/08/30 07:52:51;;;;;;;;;;;;;;;26.79;33.72;99998.28;5093595;28;19912;-67
2023/08/30 07:55:16;;;;;;;;;;;;;;;26.90;33.80;100011.81;5098615;28;20011;-67
2023/08/30 07:57:42;;;;;;;;;;;;;;;26.97;33.82;99992.88;5114189;28;19912;-67
2023/08/30 08:00:07;;;;;;;;;;;;;;;27.02;33.55;99995.50;5113954;28;20008;-67
2023/08/30 08:02:33;;;;;;;;;;;;;;;27.08;33.72;99994.25;5101795;28;19955;-67
2023/08/30 08:04:58;;;;;;;;;;;;;;;27.11;33.79;99993.59;5093366;28;20385;-67
2023/08/30 08:07:24;;;;;;;;;;;;;;;27.15;33.91;99994.59;5093826;28;19981;-67
2023/08/30 08:09:49;;;;;;;;;;;;;;;27.21;33.74;99998.03;5093785;28;19912;-67
2023/08/30 08:12:14;;;;;;;;;;;;;;;27.26;33.90;100000.66;5093430;28;20353;-67
2023/08/30 08:14:40;;;;;;;;;;;;;;;27.34;33.67;100001.84;5093525;28;19912;-67
2023/08/30 08:17:08;;;;;;;;;;;;;;;27.31;33.50;100003.28;5093498;28;19919;-67
2023/08/30 08:19:33;;;;;;;;;;;;;;;27.21;33.20;99995.28;5093327;28;19915;-67
2023/08/30 08:21:58;;;;;;;;;;;;;;;27.18;33.12;99991.19;5093174;28;19912;-67
2023/08/30 08:24:24;;;;;;;;;;;;;;;27.17;33.81;99995.09;5093481;28;19916;-67
2023/08/30 08:26:49;;;;;;;;;;;;;;;27.15;33.54;99991.03;5093321;28;19941;-67
2023/08/30 08:29:14;;;;;;;;;;;;;;;27.17;33.49;99994.28;5093094;28;20014;-67
2023/08/30 08:31:40;;;;;;;;;;;;;;;27.17;33.32;99988.75;5093406;28;19916;-68
2023/08/30 08:34:12;;;;;;;;;;;;;;;27.32;33.53;99998.59;5093418;28;19916;-67
2023/08/30 08:36:41;;;;;;;;;;;;;;;27.49;33.64;99992.31;5092568;28;20011;-67
2023/08/30 08:39:07;;;;;;;;;;;;;;;27.63;33.60;99998.53;5092801;28;19959;-67
2023/08/30 08:41:38;;;;;;;;;;;;;;;27.75;33.08;99997.97;5092936;28;20404;-67
2023/08/30 08:44:04;;;;;;;;;;;;;;;27.87;33.29;99998.13;5092612;28;19955;-67
2023/08/30 08:46:31;;;;;;;;;;;;;;;27.92;32.76;99997.22;5092722;28;20006;-68
2023/08/30 08:48:57;;;;;;;;;;;;;;;28.06;32.99;100002.56;5093230;28;20412;-68
2023/08/30 08:51:24;;;;;;;;;;;;;;;28.22;33.30;99997.41;5093002;28;20003;-68
2023/08/30 08:53:49;;;;;;;;;;;;;;;28.42;32.42;99998.69;5092429;28;19912;-68
2023/08/30 08:56:15;;;;;;;;;;;;;;;28.56;32.05;99996.63;5096046;28;19923;-67
2023/08/30 08:58:41;;;;;;;;;;;;;;;28.74;32.10;99992.69;5091926;28;20002;-68
2023/08/30 09:01:07;;;;;;;;;;;;;;;28.88;31.88;99994.44;5092703;28;20065;-68
2023/08/30 09:03:33;;;;;;;;;;;;;;;28.96;31.14;99994.44;5072182;28;20018;-68
2023/08/30 09:05:58;;;;;;;;;;;;;;;28.77;30.03;99999.53;5073097;28;19912;-67
2023/08/30 09:08:24;;;;;;;;;;;;;;;28.89;31.76;99988.59;5084829;28;20007;-67
2023/08/30 09:10:50;;;;;;;;;;;;;;;28.90;31.09;99995.75;5091843;28;19912;-67
2023/08/30 09:13:16;;;;;;;;;;;;;;;28.97;31.33;99995.25;5092320;28;19920;-68
2023/08/30 09:15:41;;;;;;;;;;;;;;;28.81;31.14;99996.91;5092619;28;19919;-68
2023/08/30 09:18:14;;;;;;;;;;;;;;;28.68;30.33;99999.53;5092818;28;19912;-68
2023/08/30 09:20:39;;;;;;;;;;;;;;;28.64;30.92;100001.34;5092496;28;19916;-68
2023/08/30 09:23:05;;;;;;;;;;;;;;;28.65;31.32;100002.13;5092496;28;19978;-68
2023/08/30 09:25:30;;;;;;;;;;;;;;;28.47;31.41;100006.81;5092467;28;19912;-68
2023/08/30 09:28:01;;;;;;;;;;;;;;;28.51;31.47;100005.03;5092629;28;19955;-67
2023/08/30 09:30:26;;;;;;;;;;;;;;;28.26;31.15;100003.91;5092755;28;19916;-68
2023/08/30 09:32:52;;;;;;;;;;;;;;;28.32;32.10;100008.13;5092689;28;20387;-67
2023/08/30 09:35:17;;;;;;;;;;;;;;;28.26;31.26;100013.00;5092667;28;19919;-68
2023/08/30 09:37:46;;;;;;;;;;;;;;;28.29;31.08;100004.06;5092633;28;19912;-68
2023/08/30 09:40:11;;;;;;;;;;;;;;;28.16;31.37;100007.81;5089919;28;19912;-68
2023/08/30 09:42:42;;;;;;;;;;;;;;;28.13;30.89;100003.72;5072058;28;19977;-68
2023/08/30 09:45:23;;;;;;;;;;;;;;;28.18;31.32;100008.28;5072200;28;19916;-68
2023/08/30 09:47:49;;;;;;;;;;;;;;;28.17;31.14;100001.94;5078999;28;19912;-68
2023/08/30 09:50:18;;;;;;;;;;;;;;;28.29;30.87;100004.06;5092656;28;19989;-68
2023/08/30 09:52:44;;;;;;;;;;;;;;;28.46;31.83;99996.94;5095929;28;20261;-68
2023/08/30 09:55:09;;;;;;;;;;;;;;;28.51;30.96;99996.75;5099873;28;19912;-68
2023/08/30 09:57:35;;;;;;;;;;;;;;;28.63;30.97;99994.16;5116508;28;20526;-68
2023/08/30 10:00:03;;;;;;;;;;;;;;;28.65;30.89;99997.41;5116676;28;19950;-68
2023/08/30 10:02:29;;;;;;;;;;;;;;;28.79;31.40;99996.41;5103452;28;20368;-68
2023/08/30 10:04:55;;;;;;;;;;;;;;;28.71;30.03;99998.06;5095762;28;20022;-68
2023/08/30 10:07:21;;;;;;;;;;;;;;;28.91;30.12;100000.13;5095828;28;20399;-68
2023/08/30 10:09:47;;;;;;;;;;;;;;;29.04;30.08;99992.78;5096012;28;20000;-68
2023/08/30 10:12:13;;;;;;;;;;;;;;;29.06;28.45;99992.47;5095985;28;19912;-68
2023/08/30 10:14:38;;;;;;;;;;;;;;;29.14;29.74;100002.69;5094047;28;19919;-68
2023/08/30 10:17:05;;;;;;;;;;;;;;;29.42;30.29;99994.81;5095423;28;19972;-68
2023/08/30 10:19:31;;;;;;;;;;;;;;;29.51;30.55;99956.00;5095653;28;19939;-69
2023/08/30 10:22:08;;;;;;;;;;;;;;;29.77;28.48;99999.38;5095471;28;20381;-68
2023/08/30 10:24:41;;;;;;;;;;;;;;;29.90;30.18;99993.59;5095344;28;19916;-68
2023/08/30 10:27:08;;;;;;;;;;;;;;;30.11;29.28;99990.06;5095518;28;19916;-68
2023/08/30 10:29:34;;;;;;;;;;;;;;;30.29;28.57;99994.31;5094120;28;19912;-68
2023/08/30 10:32:05;;;;;;;;;;;;;;;30.32;27.64;99995.59;5095693;28;19999;-68
2023/08/30 10:34:34;;;;;;;;;;;;;;;30.52;28.84;100002.28;5095624;28;19912;-68
2023/08/30 10:37:01;;;;;;;;;;;;;;;30.65;27.87;99995.66;5095490;28;20435;-68
2023/08/30 10:39:37;;;;;;;;;;;;;;;30.67;28.48;99996.09;5094038;28;20014;-68
2023/08/30 10:42:22;;;;;;;;;;;;;;;30.66;29.37;99993.69;5076622;28;19913;-68
2023/08/30 10:44:48;;;;;;;;;;;;;;;30.67;26.51;99987.78;5087487;28;19924;-68
2023/08/30 10:47:22;;;;;;;;;;;;;;;30.86;28.15;99981.72;5095192;28;19961;-68
2023/08/30 10:49:48;;;;;;;;;;;;;;;30.95;26.75;99987.22;5094947;28;20391;-68
2023/08/30 10:52:13;;;;;;;;;;;;;;;30.98;26.52;99994.03;5095290;28;19949;-68
2023/08/30 10:54:39;;;;;;;;;;;;;;;31.03;27.95;99991.03;5094127;28;19912;-68
2023/08/30 10:57:13;;;;;;;;;;;;;;;31.02;25.97;100001.34;5115853;28;20439;-68
2023/08/30 10:59:38;;;;;;;;;;;;;;;31.14;25.55;99988.66;5115622;28;19912;-68
2023/08/30 11:02:03;;;;;;;;;;;;;;;31.20;24.18;99995.56;5107162;28;19912;-68
2023/08/30 11:04:28;;;;;;;;;;;;;;;31.43;26.03;99990.41;5094601;28;19920;-68
2023/08/30 11:06:54;;;;;;;;;;;;;;;31.66;27.90;99989.97;5094887;28;19962;-68
2023/08/30 11:09:21;;;;;;;;;;;;;;;31.81;25.44;99995.63;5094637;28;19935;-68
2023/08/30 11:11:46;;;;;;;;;;;;;;;31.95;25.78;99995.25;5095025;28;19916;-68
2023/08/30 11:14:12;;;;;;;;;;;;;;;31.76;24.05;99995.03;5094907;28;20482;-68
2023/08/30 11:16:38;;;;;;;;;;;;;;;31.92;24.74;100003.50;5094841;28;19923;-68
2023/08/30 11:19:04;;;;;;;;;;;;;;;32.10;25.77;100002.09;5094630;28;19912;-68
2023/08/30 11:21:43;;;;;;;;;;;;;;;32.26;25.50;100004.13;5093383;28;20004;-68
2023/08/30 11:24:08;;;;;;;;;;;;;;;32.36;25.87;100003.66;5094434;28;20010;-68
2023/08/30 11:26:34;;;;;;;;;;;;;;;32.35;26.13;99997.25;5094453;28;20452;-68
2023/08/30 11:29:06;;;;;;;;;;;;;;;32.34;24.70;100006.78;5094583;28;19919;-69
2023/08/30 11:31:31;;;;;;;;;;;;;;;32.32;24.91;100005.53;5094307;28;20271;-68
2023/08/30 11:33:59;;;;;;;;;;;;;;;32.20;24.53;100004.38;5092670;28;20078;-68
2023/08/30 11:36:31;;;;;;;;;;;;;;;32.16;24.16;100011.78;5074180;28;20050;-68
2023/08/30 11:38:57;;;;;;;;;;;;;;;32.14;24.09;100010.53;5073664;28;19948;-68
2023/08/30 11:41:23;;;;;;;;;;;;;;;31.93;23.98;100005.13;5089528;28;19962;-68
2023/08/30 11:43:48;;;;;;;;;;;;;;;32.17;25.14;100010.66;5093909;28;20065;-68
2023/08/30 11:46:14;;;;;;;;;;;;;;;32.36;24.74;100009.22;5094085;28;19919;-68
2023/08/30 11:48:42;;;;;;;;;;;;;;;32.57;25.45;100007.06;5093879;28;19953;-68
2023/08/30 11:51:08;;;;;;;;;;;;;;;32.76;23.99;100006.41;5094170;28;20349;-68
2023/08/30 11:53:34;;;;;;;;;;;;;;;32.91;24.94;100001.22;5093909;28;19923;-68
2023/08/30 11:55:59;;;;;;;;;;;;;;;32.98;24.40;100012.53;5104635;28;19911;-68
2023/08/30 11:58:25;;;;;;;;;;;;;;;33.10;23.75;100015.25;5114273;28;20415;-68
2023/08/30 12:00:50;;;;;;;;;;;;;;;33.28;22.76;100007.38;5114102;28;19918;-68
2023/08/30 12:03:16;;;;;;;;;;;;;;;33.37;21.82;100012.78;5095585;28;19927;-68
2023/08/30 12:05:47;;;;;;;;;;;;;;;33.55;20.98;100000.13;5093808;28;20291;-68
2023/08/30 12:08:39;;;;;;;;;;;;;;;33.52;22.52;100006.41;5094096;28;19961;-68
2023/08/30 12:11:04;;;;;;;;;;;;;;;33.63;22.99;100009.44;5090503;28;20421;-68
2023/08/30 12:13:32;;;;;;;;;;;;;;;33.64;21.68;100005.53;5092805;28;19912;-68
2023/08/30 12:15:58;;;;;;;;;;;;;;;33.90;21.72;100007.72;5093701;28;19912;-68
2023/08/30 12:18:24;;;;;;;;;;;;;;;34.08;24.65;100001.75;5092279;28;20028;-68
2023/08/30 12:20:56;;;;;;;;;;;;;;;34.25;21.29;99995.78;5093296;28;19916;-68
2023/08/30 12:23:31;;;;;;;;;;;;;;;34.40;23.20;99996.88;5093227;28;19912;-68
2023/08/30 12:26:09;;;;;;;;;;;;;;;34.33;22.96;100000.31;5093319;28;19924;-68
2023/08/30 12:28:35;;;;;;;;;;;;;;;34.37;21.61;100000.41;5093488;28;19912;-68
2023/08/30 12:31:01;;;;;;;;;;;;;;;34.49;21.05;100002.22;5092938;28;20372;-68
2023/08/30 12:33:28;;;;;;;;;;;;;;;34.56;23.77;100007.16;5093056;28;19916;-68
2023/08/30 12:35:53;;;;;;;;;;;;;;;34.50;20.91;100007.44;5077123;28;19939;-68
2023/08/30 12:38:19;;;;;;;;;;;;;;;34.60;19.77;100008.81;5093164;28;20336;-68